UAE502 OMDB-VABB
Flight info
| Callsign | UAE502 |
|---|---|
| Flight time | N/A |
| Altitude | 41000 |
| Route | IVURO M677 LALDO B505 NADSO A777 VAXIM L301 KARKU M638 EXOLU POKON2A |
| Aircraft | A359/H-SDE2E3GHIJ3J4J5LM1ORWXY/LB1D1 |
Departure
| Time | 2026-04-20 14:55 |
|---|---|
| Airport | Dubai International Airport (OMDB) |
Arrival
| Time | N/A |
|---|---|
| Airport | Chhatrapati Shivaji Maharaj International Airport (VABB) |
| Time | Latitude | Longitude | Altitude | Speed | Heading |
|---|---|---|---|---|---|
| 2026-04-20 14:06 | 25.24770 | 55.36510 | 31 ft | 0 kts | 211° |
| 2026-04-20 14:30 | 25.24773 | 55.36512 | 31 ft | 2 kts | 211° |
| 2026-04-20 14:30 | 25.24788 | 55.36522 | 28 ft | 3 kts | 207° |
| 2026-04-20 14:31 | 25.24807 | 55.36531 | 27 ft | 3 kts | 205° |
| 2026-04-20 14:31 | 25.24822 | 55.36539 | 29 ft | 2 kts | 207° |
| 2026-04-20 14:31 | 25.24835 | 55.36546 | 29 ft | 3 kts | 172° |
| 2026-04-20 14:31 | 25.24846 | 55.36542 | 26 ft | 3 kts | 143° |
| 2026-04-20 14:32 | 25.24861 | 55.36527 | 27 ft | 3 kts | 125° |
| 2026-04-20 14:32 | 25.24866 | 55.36519 | 27 ft | 0 kts | 121° |
| 2026-04-20 14:44 | 25.24864 | 55.36522 | 29 ft | 1 kts | 122° |
| 2026-04-20 14:45 | 25.24851 | 55.36547 | 28 ft | 6 kts | 120° |
| 2026-04-20 14:45 | 25.24832 | 55.36600 | 31 ft | 6 kts | 81° |
| 2026-04-20 14:45 | 25.24868 | 55.36633 | 30 ft | 8 kts | 11° |
| 2026-04-20 14:45 | 25.24916 | 55.36604 | 29 ft | 9 kts | 315° |
| 2026-04-20 14:46 | 25.24961 | 55.36535 | 28 ft | 14 kts | 304° |
| 2026-04-20 14:46 | 25.25020 | 55.36431 | 27 ft | 17 kts | 299° |
| 2026-04-20 14:46 | 25.25065 | 55.36349 | 28 ft | 0 kts | 303° |
| 2026-04-20 14:46 | 25.25068 | 55.36344 | 29 ft | 2 kts | 301° |
| 2026-04-20 14:47 | 25.25082 | 55.36317 | 31 ft | 7 kts | 300° |
| 2026-04-20 14:47 | 25.25114 | 55.36258 | 25 ft | 11 kts | 300° |
| 2026-04-20 14:47 | 25.25161 | 55.36169 | 26 ft | 15 kts | 301° |
| 2026-04-20 14:48 | 25.25295 | 55.35929 | 24 ft | 21 kts | 303° |
| 2026-04-20 14:48 | 25.25376 | 55.35785 | 20 ft | 23 kts | 302° |
| 2026-04-20 14:48 | 25.25464 | 55.35625 | 20 ft | 25 kts | 300° |
| 2026-04-20 14:48 | 25.25554 | 55.35461 | 23 ft | 25 kts | 302° |
| 2026-04-20 14:49 | 25.25642 | 55.35302 | 27 ft | 24 kts | 301° |
| 2026-04-20 14:49 | 25.25784 | 55.35247 | 11 ft | 24 kts | 14° |
| 2026-04-20 14:49 | 25.25930 | 55.35335 | 11 ft | 24 kts | 35° |
| 2026-04-20 14:49 | 25.25986 | 55.35489 | 10 ft | 22 kts | 94° |
| 2026-04-20 14:50 | 25.25932 | 55.35645 | 9 ft | 22 kts | 119° |
| 2026-04-20 14:50 | 25.25851 | 55.35794 | 9 ft | 23 kts | 123° |
| 2026-04-20 14:50 | 25.25761 | 55.35945 | 11 ft | 24 kts | 123° |
| 2026-04-20 14:50 | 25.25667 | 55.36106 | 14 ft | 24 kts | 122° |
| 2026-04-20 14:51 | 25.25582 | 55.36263 | 18 ft | 25 kts | 122° |
| 2026-04-20 14:51 | 25.25489 | 55.36430 | 15 ft | 26 kts | 121° |
| 2026-04-20 14:51 | 25.25389 | 55.36611 | 14 ft | 28 kts | 121° |
| 2026-04-20 14:51 | 25.25285 | 55.36796 | 19 ft | 28 kts | 121° |
| 2026-04-20 14:52 | 25.25184 | 55.36981 | 23 ft | 28 kts | 121° |
| 2026-04-20 14:52 | 25.25086 | 55.37153 | 27 ft | 26 kts | 121° |
| 2026-04-20 14:52 | 25.24992 | 55.37329 | 30 ft | 26 kts | 121° |
| 2026-04-20 14:52 | 25.24898 | 55.37503 | 31 ft | 27 kts | 121° |
| 2026-04-20 14:53 | 25.24794 | 55.37685 | 31 ft | 28 kts | 122° |
| 2026-04-20 14:53 | 25.24691 | 55.37871 | 31 ft | 29 kts | 119° |
| 2026-04-20 14:53 | 25.24696 | 55.37964 | 36 ft | 5 kts | 47° |
| 2026-04-20 14:53 | 25.24718 | 55.37986 | 37 ft | 4 kts | 37° |
| 2026-04-20 14:54 | 25.24745 | 55.37999 | 40 ft | 6 kts | 19° |
| 2026-04-20 14:54 | 25.24786 | 55.37998 | 39 ft | 6 kts | 332° |
| 2026-04-20 14:54 | 25.24825 | 55.37969 | 39 ft | 9 kts | 322° |
| 2026-04-20 14:54 | 25.24859 | 55.37915 | 39 ft | 11 kts | 301° |
| 2026-04-20 14:55 | 25.24978 | 55.37707 | 37 ft | 55 kts | 301° |
| 2026-04-20 14:55 | 25.25271 | 55.37181 | 34 ft | 117 kts | 301° |
| 2026-04-20 14:55 | 25.25850 | 55.36157 | 236 ft | 185 kts | 301° |
| 2026-04-20 14:55 | 25.26575 | 55.34850 | 974 ft | 216 kts | 301° |
| 2026-04-20 14:56 | 25.27424 | 55.33310 | 1643 ft | 249 kts | 300° |
| 2026-04-20 14:56 | 25.28289 | 55.31652 | 2253 ft | 249 kts | 300° |
| 2026-04-20 14:56 | 25.29152 | 55.29983 | 2878 ft | 251 kts | 303° |
| 2026-04-20 14:56 | 25.30409 | 55.28696 | 3466 ft | 246 kts | 334° |
| 2026-04-20 14:57 | 25.32020 | 55.28419 | 3885 ft | 233 kts | 9° |
| 2026-04-20 14:57 | 25.33598 | 55.28823 | 4236 ft | 233 kts | 13° |
| 2026-04-20 14:57 | 25.35185 | 55.29181 | 4581 ft | 234 kts | 8° |
| 2026-04-20 14:57 | 25.36803 | 55.29414 | 4921 ft | 234 kts | 5° |
| 2026-04-20 14:58 | 25.38428 | 55.29592 | 5267 ft | 236 kts | 8° |
| 2026-04-20 14:58 | 25.39968 | 55.30193 | 5619 ft | 238 kts | 32° |
| 2026-04-20 14:58 | 25.41199 | 55.31477 | 5991 ft | 250 kts | 48° |
| 2026-04-20 14:58 | 25.42309 | 55.33011 | 6376 ft | 260 kts | 50° |
| 2026-04-20 14:59 | 25.43446 | 55.34611 | 6759 ft | 269 kts | 50° |
| 2026-04-20 14:59 | 25.44628 | 55.36255 | 7138 ft | 277 kts | 50° |
| 2026-04-20 14:59 | 25.45845 | 55.37936 | 7582 ft | 281 kts | 49° |
| 2026-04-20 14:59 | 25.47076 | 55.39628 | 7986 ft | 284 kts | 49° |
| 2026-04-20 15:00 | 25.48322 | 55.41336 | 8397 ft | 286 kts | 49° |
| 2026-04-20 15:00 | 25.49562 | 55.43066 | 8849 ft | 288 kts | 50° |
| 2026-04-20 15:00 | 25.50788 | 55.44835 | 9303 ft | 291 kts | 51° |
| 2026-04-20 15:00 | 25.51975 | 55.46654 | 9740 ft | 294 kts | 57° |
| 2026-04-20 15:01 | 25.52733 | 55.48776 | 10161 ft | 301 kts | 78° |
| 2026-04-20 15:01 | 25.52695 | 55.51109 | 10616 ft | 309 kts | 102° |
| 2026-04-20 15:01 | 25.51847 | 55.53302 | 11064 ft | 315 kts | 120° |
| 2026-04-20 15:01 | 25.50673 | 55.55377 | 11532 ft | 319 kts | 122° |
| 2026-04-20 15:02 | 25.49459 | 55.57449 | 12021 ft | 323 kts | 122° |
| 2026-04-20 15:02 | 25.48239 | 55.59547 | 12509 ft | 326 kts | 121° |
| 2026-04-20 15:02 | 25.47013 | 55.61673 | 13022 ft | 329 kts | 121° |
| 2026-04-20 15:02 | 25.45786 | 55.63812 | 13535 ft | 331 kts | 121° |
| 2026-04-20 15:03 | 25.44550 | 55.65973 | 14024 ft | 333 kts | 121° |
| 2026-04-20 15:03 | 25.43334 | 55.68154 | 14495 ft | 334 kts | 118° |
| 2026-04-20 15:03 | 25.42413 | 55.70509 | 14977 ft | 334 kts | 105° |
| 2026-04-20 15:03 | 25.41821 | 55.72989 | 15458 ft | 334 kts | 102° |
| 2026-04-20 15:04 | 25.41295 | 55.75504 | 15965 ft | 336 kts | 101° |
| 2026-04-20 15:04 | 25.40774 | 55.78019 | 16469 ft | 337 kts | 102° |
| 2026-04-20 15:04 | 25.40244 | 55.80547 | 16998 ft | 337 kts | 102° |
| 2026-04-20 15:04 | 25.39708 | 55.83075 | 17522 ft | 338 kts | 102° |
| 2026-04-20 15:05 | 25.39170 | 55.85602 | 18066 ft | 338 kts | 102° |
| 2026-04-20 15:05 | 25.38631 | 55.88128 | 18533 ft | 338 kts | 102° |
| 2026-04-20 15:05 | 25.38092 | 55.90654 | 19008 ft | 337 kts | 103° |
| 2026-04-20 15:05 | 25.37552 | 55.93174 | 19482 ft | 337 kts | 103° |
| 2026-04-20 15:06 | 25.37017 | 55.95687 | 19958 ft | 336 kts | 103° |
| 2026-04-20 15:06 | 25.36481 | 55.98196 | 20459 ft | 334 kts | 103° |
| 2026-04-20 15:06 | 25.35944 | 56.00693 | 20956 ft | 333 kts | 103° |
| 2026-04-20 15:06 | 25.35411 | 56.03176 | 21469 ft | 331 kts | 103° |
| 2026-04-20 15:07 | 25.34879 | 56.05648 | 21956 ft | 329 kts | 103° |
| 2026-04-20 15:07 | 25.34351 | 56.08104 | 22483 ft | 327 kts | 103° |
| 2026-04-20 15:07 | 25.33827 | 56.10539 | 22993 ft | 324 kts | 103° |
| 2026-04-20 15:07 | 25.33308 | 56.12950 | 23495 ft | 321 kts | 104° |
| 2026-04-20 15:08 | 25.32853 | 56.15346 | 23922 ft | 317 kts | 99° |
| 2026-04-20 15:08 | 25.32560 | 56.17745 | 24341 ft | 313 kts | 96° |
| 2026-04-20 15:08 | 25.32336 | 56.20125 | 24792 ft | 308 kts | 95° |
| 2026-04-20 15:08 | 25.32146 | 56.22466 | 25209 ft | 303 kts | 95° |
| 2026-04-20 15:09 | 25.31970 | 56.24767 | 25633 ft | 298 kts | 95° |
| 2026-04-20 15:09 | 25.31797 | 56.27039 | 25991 ft | 296 kts | 95° |
| 2026-04-20 15:09 | 25.31620 | 56.29292 | 26321 ft | 295 kts | 95° |
| 2026-04-20 15:09 | 25.31440 | 56.31551 | 26630 ft | 294 kts | 96° |
| 2026-04-20 15:10 | 25.31255 | 56.33801 | 26887 ft | 295 kts | 96° |
| 2026-04-20 15:10 | 25.31066 | 56.36063 | 27154 ft | 296 kts | 96° |
| 2026-04-20 15:10 | 25.30875 | 56.38327 | 27410 ft | 297 kts | 96° |
| 2026-04-20 15:10 | 25.30691 | 56.40578 | 27660 ft | 298 kts | 95° |
| 2026-04-20 15:11 | 25.30575 | 56.42898 | 27916 ft | 299 kts | 92° |
| 2026-04-20 15:11 | 25.30517 | 56.45172 | 28158 ft | 301 kts | 91° |
| 2026-04-20 15:11 | 25.30478 | 56.47483 | 28396 ft | 302 kts | 91° |
| 2026-04-20 15:11 | 25.30439 | 56.49807 | 28648 ft | 303 kts | 92° |
| 2026-04-20 15:12 | 25.30390 | 56.52147 | 28900 ft | 305 kts | 92° |
| 2026-04-20 15:12 | 25.30332 | 56.54492 | 29086 ft | 306 kts | 92° |
| 2026-04-20 15:12 | 25.30266 | 56.56851 | 29306 ft | 308 kts | 92° |
| 2026-04-20 15:12 | 25.30069 | 56.59208 | 29501 ft | 309 kts | 102° |
| 2026-04-20 15:13 | 25.29534 | 56.61500 | 29726 ft | 308 kts | 112° |
| 2026-04-20 15:13 | 25.28790 | 56.63726 | 29915 ft | 309 kts | 114° |
| 2026-04-20 15:13 | 25.27985 | 56.65928 | 30091 ft | 310 kts | 115° |
| 2026-04-20 15:13 | 25.27147 | 56.68129 | 30247 ft | 312 kts | 115° |
| 2026-04-20 15:14 | 25.26294 | 56.70336 | 30410 ft | 313 kts | 115° |
| 2026-04-20 15:14 | 25.25714 | 56.71835 | 30512 ft | 315 kts | 115° |
| 2026-04-20 15:14 | 25.24853 | 56.74067 | 30677 ft | 316 kts | 115° |
| 2026-04-20 15:14 | 25.23996 | 56.76304 | 30828 ft | 318 kts | 115° |
| 2026-04-20 15:15 | 25.23135 | 56.78560 | 30995 ft | 319 kts | 114° |
| 2026-04-20 15:15 | 25.22271 | 56.80832 | 31139 ft | 321 kts | 114° |
| 2026-04-20 15:15 | 25.21408 | 56.83107 | 31294 ft | 322 kts | 114° |
| 2026-04-20 15:15 | 25.20539 | 56.85397 | 31457 ft | 323 kts | 114° |
| 2026-04-20 15:16 | 25.19679 | 56.87660 | 31624 ft | 325 kts | 114° |
| 2026-04-20 15:16 | 25.18792 | 56.89995 | 31779 ft | 326 kts | 114° |
| 2026-04-20 15:16 | 25.17913 | 56.92304 | 31936 ft | 327 kts | 114° |
| 2026-04-20 15:16 | 25.17042 | 56.94593 | 32085 ft | 329 kts | 114° |
| 2026-04-20 15:17 | 25.16154 | 56.96923 | 32232 ft | 330 kts | 114° |
| 2026-04-20 15:17 | 25.15260 | 56.99268 | 32384 ft | 331 kts | 114° |
| 2026-04-20 15:17 | 25.14365 | 57.01614 | 32524 ft | 333 kts | 113° |
| 2026-04-20 15:17 | 25.13463 | 57.03975 | 32670 ft | 335 kts | 113° |
| 2026-04-20 15:18 | 25.12558 | 57.06348 | 32806 ft | 336 kts | 113° |
| 2026-04-20 15:18 | 25.11648 | 57.08729 | 32949 ft | 337 kts | 113° |
| 2026-04-20 15:18 | 25.10736 | 57.11114 | 33096 ft | 339 kts | 113° |
| 2026-04-20 15:18 | 25.09820 | 57.13511 | 33283 ft | 338 kts | 113° |
| 2026-04-20 15:19 | 25.08903 | 57.15907 | 33450 ft | 339 kts | 113° |
| 2026-04-20 15:19 | 25.07984 | 57.18306 | 33601 ft | 341 kts | 113° |
| 2026-04-20 15:19 | 25.07059 | 57.20720 | 33738 ft | 342 kts | 113° |
| 2026-04-20 15:19 | 25.06131 | 57.23141 | 33882 ft | 343 kts | 113° |
| 2026-04-20 15:20 | 25.05197 | 57.25574 | 33923 ft | 348 kts | 113° |
| 2026-04-20 15:20 | 25.03287 | 57.30550 | 34038 ft | 356 kts | 112° |
| 2026-04-20 15:20 | 25.02318 | 57.33073 | 34139 ft | 359 kts | 112° |
| 2026-04-20 15:21 | 25.01340 | 57.35615 | 34240 ft | 362 kts | 112° |
| 2026-04-20 15:21 | 25.00355 | 57.38176 | 34364 ft | 364 kts | 112° |
| 2026-04-20 15:21 | 24.99366 | 57.40745 | 34522 ft | 364 kts | 112° |
| 2026-04-20 15:21 | 24.98371 | 57.43325 | 34633 ft | 366 kts | 112° |
| 2026-04-20 15:22 | 24.97373 | 57.45914 | 34780 ft | 368 kts | 112° |
| 2026-04-20 15:22 | 24.96368 | 57.48521 | 34889 ft | 370 kts | 112° |
| 2026-04-20 15:22 | 24.95358 | 57.51139 | 35020 ft | 372 kts | 112° |
| 2026-04-20 15:22 | 24.94340 | 57.53776 | 35140 ft | 374 kts | 112° |
| 2026-04-20 15:23 | 24.93319 | 57.56417 | 35263 ft | 376 kts | 112° |
| 2026-04-20 15:23 | 24.92291 | 57.59075 | 35386 ft | 378 kts | 112° |
| 2026-04-20 15:23 | 24.91259 | 57.61744 | 35507 ft | 380 kts | 111° |
| 2026-04-20 15:23 | 24.90218 | 57.64434 | 35619 ft | 382 kts | 111° |
| 2026-04-20 15:24 | 24.89176 | 57.67122 | 35806 ft | 382 kts | 111° |
| 2026-04-20 15:24 | 24.88133 | 57.69814 | 35910 ft | 383 kts | 111° |
| 2026-04-20 15:24 | 24.87084 | 57.72519 | 36038 ft | 385 kts | 111° |
| 2026-04-20 15:24 | 24.86030 | 57.75234 | 36156 ft | 386 kts | 111° |
| 2026-04-20 15:25 | 24.84973 | 57.77955 | 36266 ft | 388 kts | 111° |
| 2026-04-20 15:25 | 24.83908 | 57.80695 | 36377 ft | 389 kts | 111° |
| 2026-04-20 15:25 | 24.82839 | 57.83441 | 36468 ft | 392 kts | 111° |
| 2026-04-20 15:26 | 24.80517 | 57.88899 | 36652 ft | 396 kts | 114° |
| 2026-04-20 15:26 | 24.79299 | 57.91622 | 36763 ft | 397 kts | 114° |
| 2026-04-20 15:26 | 24.78083 | 57.94337 | 36926 ft | 397 kts | 114° |